createdAt,value
2022-12-29T00:02:00.029Z,5.20
2022-12-29T00:04:26.717Z,5.10
2022-12-29T00:06:53.779Z,5.10
2022-12-29T00:09:20.999Z,5.10
2022-12-29T00:11:47.680Z,5.10
2022-12-29T00:14:33.414Z,5.00
2022-12-29T00:17:00.020Z,5.00
2022-12-29T00:19:45.244Z,5.00
2022-12-29T00:22:34.141Z,5.00
2022-12-29T00:25:09.946Z,5.00
2022-12-29T00:27:54.878Z,5.00
2022-12-29T00:30:42.065Z,4.90
2022-12-29T00:33:32.188Z,4.90
2022-12-29T00:36:06.843Z,4.90
2022-12-29T00:38:55.620Z,4.90
2022-12-29T00:41:41.054Z,4.80
2022-12-29T00:44:11.241Z,4.80
2022-12-29T00:46:39.390Z,4.80
2022-12-29T00:49:26.881Z,4.80
2022-12-29T00:51:54.792Z,4.70
2022-12-29T00:54:21.648Z,4.70
2022-12-29T00:56:49.642Z,4.70
2022-12-29T00:59:16.626Z,4.70
2022-12-29T01:01:45.756Z,4.70
2022-12-29T01:04:13.479Z,4.60
2022-12-29T01:06:41.631Z,4.60
2022-12-29T01:09:28.337Z,4.60
2022-12-29T01:11:55.153Z,4.70
2022-12-29T01:14:22.698Z,4.60
2022-12-29T01:16:50.084Z,4.60
2022-12-29T01:19:18.241Z,4.60
2022-12-29T01:21:45.561Z,4.60
2022-12-29T01:24:12.201Z,4.60
2022-12-29T01:26:38.886Z,4.70
2022-12-29T01:29:05.689Z,4.70
2022-12-29T01:31:32.403Z,4.80
2022-12-29T01:33:59.151Z,4.80
2022-12-29T01:36:26.158Z,4.80
2022-12-29T01:38:53.019Z,4.80
2022-12-29T01:41:20.109Z,4.90
2022-12-29T01:43:57.188Z,4.90
2022-12-29T01:46:39.832Z,4.90
2022-12-29T01:49:20.511Z,4.90
2022-12-29T01:51:54.723Z,4.90
2022-12-29T01:54:30.135Z,4.90
2022-12-29T01:57:00.385Z,5.00
2022-12-29T01:59:31.824Z,5.00
2022-12-29T02:01:58.994Z,5.00
2022-12-29T02:04:27.641Z,5.10
2022-12-29T02:07:03.545Z,5.10
2022-12-29T02:09:30.377Z,5.10
2022-12-29T02:11:58.866Z,5.10
2022-12-29T02:14:25.650Z,5.10
2022-12-29T02:16:58.184Z,5.10
2022-12-29T02:19:53.670Z,5.20
2022-12-29T02:22:35.797Z,5.20
2022-12-29T02:25:28.175Z,5.20
2022-12-29T02:28:13.291Z,5.30
2022-12-29T02:31:23.820Z,5.30
2022-12-29T02:34:19.535Z,5.30
2022-12-29T02:37:04.502Z,5.40
2022-12-29T02:39:58.076Z,5.40
2022-12-29T02:42:30.926Z,5.50
2022-12-29T02:45:32.865Z,5.50
2022-12-29T02:48:15.979Z,5.50
2022-12-29T02:50:55.588Z,5.60
2022-12-29T02:53:44.426Z,5.60
2022-12-29T02:56:11.092Z,5.50
2022-12-29T02:58:37.742Z,5.60
2022-12-29T03:01:38.468Z,5.60
2022-12-29T03:04:31.909Z,5.60
2022-12-29T03:07:21.103Z,5.60
2022-12-29T03:10:00.017Z,5.60
2022-12-29T03:12:56.064Z,5.60
2022-12-29T03:16:04.421Z,5.70
2022-12-29T03:18:38.555Z,5.70
2022-12-29T03:21:12.744Z,5.70
2022-12-29T03:23:42.032Z,5.70
2022-12-29T03:26:13.425Z,5.70
2022-12-29T03:28:45.846Z,5.70
2022-12-29T03:31:13.848Z,5.70
2022-12-29T03:33:44.443Z,5.70
2022-12-29T03:36:18.631Z,5.70
2022-12-29T03:38:49.047Z,5.70
2022-12-29T03:41:20.832Z,5.70
2022-12-29T03:43:47.729Z,5.70
2022-12-29T03:46:14.512Z,5.80
2022-12-29T03:48:41.182Z,5.80
2022-12-29T03:51:07.886Z,5.80
2022-12-29T03:53:34.583Z,5.90
2022-12-29T03:56:01.311Z,5.90
2022-12-29T03:58:27.955Z,6.00
2022-12-29T04:00:54.594Z,6.00
2022-12-29T04:03:21.301Z,6.00
2022-12-29T04:05:47.961Z,6.00
2022-12-29T04:08:14.622Z,6.10
2022-12-29T04:10:41.336Z,6.10
2022-12-29T04:13:07.958Z,6.10
2022-12-29T04:15:34.636Z,6.10
2022-12-29T04:18:01.334Z,6.10
2022-12-29T04:20:46.747Z,6.20
2022-12-29T04:23:13.388Z,6.20
2022-12-29T04:25:40.027Z,6.20
2022-12-29T04:28:08.815Z,6.30
2022-12-29T04:30:35.589Z,6.30
2022-12-29T04:33:02.215Z,6.30
2022-12-29T04:35:28.930Z,6.30
2022-12-29T04:37:55.562Z,6.40
2022-12-29T04:40:22.503Z,6.40
2022-12-29T04:42:49.335Z,6.40
2022-12-29T04:45:16.109Z,6.40
2022-12-29T04:47:43.881Z,6.40
2022-12-29T04:50:10.965Z,6.40
2022-12-29T04:52:38.683Z,6.40
2022-12-29T04:55:06.623Z,6.40
2022-12-29T04:57:34.179Z,6.50
2022-12-29T05:00:00.829Z,6.50
2022-12-29T05:02:27.655Z,6.50
2022-12-29T05:04:54.466Z,6.50
2022-12-29T05:07:21.158Z,6.60
2022-12-29T05:09:47.774Z,6.70
2022-12-29T05:12:14.443Z,6.80
2022-12-29T05:14:41.244Z,6.90
2022-12-29T05:17:07.857Z,7.00
2022-12-29T05:19:34.718Z,7.10
2022-12-29T05:22:01.570Z,7.10
2022-12-29T05:24:28.186Z,7.20
2022-12-29T05:26:54.815Z,7.30
2022-12-29T05:29:21.441Z,7.50
2022-12-29T05:31:48.133Z,7.60
2022-12-29T05:34:14.842Z,7.70
2022-12-29T05:36:41.676Z,7.70
2022-12-29T05:39:11.077Z,7.80
2022-12-29T05:41:37.854Z,7.80
2022-12-29T05:44:04.536Z,7.90
2022-12-29T05:46:31.236Z,7.90
2022-12-29T05:48:57.937Z,7.90
2022-12-29T05:51:24.696Z,7.90
2022-12-29T05:53:51.495Z,7.90
2022-12-29T05:56:18.303Z,7.90
2022-12-29T05:58:44.984Z,7.90
2022-12-29T06:01:11.619Z,8.00
2022-12-29T06:03:42.972Z,8.00
2022-12-29T06:06:12.961Z,8.00
2022-12-29T06:08:39.618Z,8.20
2022-12-29T06:11:06.410Z,8.20
2022-12-29T06:13:33.172Z,8.40
2022-12-29T06:15:59.923Z,8.40
2022-12-29T06:18:26.600Z,8.40
2022-12-29T06:20:53.287Z,8.50
2022-12-29T06:23:19.962Z,8.40
2022-12-29T06:25:49.255Z,8.40
2022-12-29T06:28:16.020Z,8.40
2022-12-29T06:30:46.230Z,8.40
2022-12-29T06:33:13.808Z,8.40
2022-12-29T06:35:41.130Z,8.40
2022-12-29T06:38:07.851Z,8.40
2022-12-29T06:40:34.545Z,8.40
2022-12-29T06:43:01.163Z,8.30
2022-12-29T06:45:27.880Z,8.30
2022-12-29T06:47:54.541Z,8.30
2022-12-29T06:50:21.278Z,8.30
2022-12-29T06:52:47.890Z,8.40
2022-12-29T06:55:14.667Z,8.40
2022-12-29T06:57:41.254Z,8.40
2022-12-29T07:00:08.726Z,8.40
2022-12-29T07:02:35.598Z,8.40
2022-12-29T07:05:02.312Z,8.50
2022-12-29T07:07:28.923Z,8.50
2022-12-29T07:09:55.806Z,8.50
2022-12-29T07:12:22.530Z,8.50
2022-12-29T07:14:49.652Z,8.50
2022-12-29T07:17:16.309Z,8.60
2022-12-29T07:19:43.167Z,8.60
2022-12-29T07:22:11.058Z,8.60
2022-12-29T07:24:37.699Z,8.80
2022-12-29T07:27:04.788Z,8.80
2022-12-29T07:29:31.454Z,8.80
2022-12-29T07:31:58.236Z,8.80
2022-12-29T07:34:24.878Z,8.80
2022-12-29T07:36:51.464Z,8.70
2022-12-29T07:39:18.116Z,8.70
2022-12-29T07:41:44.739Z,8.80
2022-12-29T07:44:11.396Z,8.80
2022-12-29T07:46:55.465Z,8.80
2022-12-29T07:49:23.699Z,8.90
2022-12-29T07:51:50.445Z,9.00
2022-12-29T07:54:19.261Z,9.00
2022-12-29T07:56:46.490Z,9.10
2022-12-29T07:59:13.174Z,9.20
2022-12-29T08:01:40.265Z,9.30
2022-12-29T08:04:07.246Z,9.30
2022-12-29T08:06:33.922Z,9.40
2022-12-29T08:09:09.919Z,9.40
2022-12-29T08:11:41.267Z,9.50
2022-12-29T08:14:08.001Z,9.50
2022-12-29T08:16:34.696Z,9.50
2022-12-29T08:19:01.523Z,9.50
2022-12-29T08:21:28.976Z,9.60
2022-12-29T08:23:55.766Z,9.70
2022-12-29T08:26:22.742Z,9.80
2022-12-29T08:28:53.739Z,9.80
2022-12-29T08:31:20.694Z,9.90
2022-12-29T08:33:47.413Z,9.90
2022-12-29T08:36:14.061Z,10.00
2022-12-29T08:38:40.877Z,10.00
2022-12-29T08:41:07.600Z,10.00
2022-12-29T08:43:34.401Z,10.00
2022-12-29T08:46:01.448Z,10.10
2022-12-29T08:48:28.203Z,10.10
2022-12-29T08:50:55.073Z,10.10
2022-12-29T08:53:21.706Z,10.10
2022-12-29T08:55:59.362Z,10.10
2022-12-29T08:58:29.442Z,10.10
2022-12-29T09:00:57.501Z,10.20
2022-12-29T09:03:54.613Z,10.20
2022-12-29T09:06:11.957Z,10.20
2022-12-29T09:08:38.603Z,10.30
2022-12-29T09:11:20.888Z,10.20
2022-12-29T09:13:48.150Z,10.20
2022-12-29T09:16:15.872Z,10.20
2022-12-29T09:18:43.090Z,10.20
2022-12-29T09:21:11.807Z,10.20
2022-12-29T09:23:38.526Z,10.20
2022-12-29T09:26:05.238Z,10.30
2022-12-29T09:28:32.302Z,10.30
2022-12-29T09:30:59.691Z,10.20
2022-12-29T09:33:26.872Z,10.30
2022-12-29T09:35:58.844Z,10.30
2022-12-29T09:38:27.048Z,10.30
2022-12-29T09:41:19.417Z,10.30
2022-12-29T09:44:06.893Z,10.30
2022-12-29T09:46:39.116Z,10.30
2022-12-29T09:49:24.600Z,10.40
2022-12-29T09:52:04.486Z,10.40
2022-12-29T09:54:43.574Z,10.40
2022-12-29T09:57:27.241Z,10.50
2022-12-29T10:00:00.693Z,10.50
2022-12-29T10:02:53.301Z,10.50
2022-12-29T10:05:32.311Z,10.50
2022-12-29T10:08:26.327Z,10.50
2022-12-29T10:11:00.069Z,10.60
2022-12-29T10:13:54.594Z,10.60
2022-12-29T10:16:31.499Z,10.70
2022-12-29T10:19:19.428Z,10.70
2022-12-29T10:21:54.948Z,10.80
2022-12-29T10:24:22.815Z,10.90
2022-12-29T10:26:52.664Z,10.90
2022-12-29T10:29:32.985Z,11.10
2022-12-29T10:32:25.989Z,11.20
2022-12-29T10:35:05.435Z,11.30
2022-12-29T10:37:59.246Z,11.30
2022-12-29T10:40:46.323Z,11.40
2022-12-29T10:43:26.566Z,11.40
2022-12-29T10:45:56.065Z,11.50
2022-12-29T10:48:31.826Z,11.40
2022-12-29T10:51:02.620Z,11.40
2022-12-29T10:54:07.369Z,11.40
2022-12-29T10:56:37.254Z,11.40
2022-12-29T10:59:28.921Z,11.50
2022-12-29T11:02:11.193Z,11.50
2022-12-29T11:04:54.459Z,11.50
2022-12-29T11:07:27.076Z,11.50
2022-12-29T11:09:55.067Z,11.60
2022-12-29T11:12:28.223Z,11.60
2022-12-29T11:15:08.394Z,11.60
2022-12-29T11:17:57.138Z,11.70
2022-12-29T11:20:38.255Z,11.80
2022-12-29T11:23:22.004Z,11.80
2022-12-29T11:26:14.604Z,11.90
2022-12-29T11:28:44.075Z,11.90
2022-12-29T11:31:11.753Z,12.00
2022-12-29T11:33:40.677Z,12.00
2022-12-29T11:36:18.190Z,12.20
2022-12-29T11:38:51.026Z,12.20
2022-12-29T11:41:26.608Z,12.40
2022-12-29T11:43:56.468Z,12.50
2022-12-29T11:46:32.579Z,12.50
2022-12-29T11:49:01.556Z,12.60
2022-12-29T11:51:30.265Z,12.70
2022-12-29T11:54:03.432Z,12.70
2022-12-29T11:56:42.184Z,12.70
2022-12-29T11:59:39.729Z,12.70
2022-12-29T12:02:40.559Z,12.60
2022-12-29T12:05:15.425Z,12.70
2022-12-29T12:07:46.783Z,12.70
2022-12-29T12:10:21.011Z,12.70
2022-12-29T12:13:23.587Z,12.60
2022-12-29T12:16:07.120Z,12.70
2022-12-29T12:18:46.948Z,12.60
2022-12-29T12:21:22.821Z,12.50
2022-12-29T12:23:55.294Z,12.50
2022-12-29T12:26:29.436Z,12.50
2022-12-29T12:29:09.424Z,12.40
2022-12-29T12:31:59.298Z,12.50
2022-12-29T12:34:38.580Z,12.40
2022-12-29T12:37:43.948Z,12.40
2022-12-29T12:40:22.835Z,12.40
2022-12-29T12:43:27.285Z,12.40
2022-12-29T12:46:14.965Z,12.40
2022-12-29T12:49:15.201Z,12.40
2022-12-29T12:51:50.596Z,12.40
2022-12-29T12:54:43.965Z,12.50
2022-12-29T12:57:33.381Z,12.50
2022-12-29T13:00:18.981Z,12.50
2022-12-29T13:02:56.699Z,12.50
2022-12-29T13:05:31.138Z,12.50
2022-12-29T13:08:39.305Z,12.50
2022-12-29T13:11:18.208Z,12.50
2022-12-29T13:13:50.309Z,12.50
2022-12-29T13:16:35.322Z,12.50
2022-12-29T13:19:09.694Z,12.50
2022-12-29T13:21:39.373Z,12.50
2022-12-29T13:24:44.753Z,12.50
2022-12-29T13:27:37.340Z,12.40
2022-12-29T13:30:18.176Z,12.40
2022-12-29T13:32:56.876Z,12.40
2022-12-29T13:35:51.287Z,12.30
2022-12-29T13:38:30.018Z,12.30
2022-12-29T13:41:19.820Z,12.20
2022-12-29T13:43:48.854Z,12.10
2022-12-29T13:46:23.080Z,12.10
2022-12-29T13:49:28.861Z,12.10
2022-12-29T13:52:04.570Z,12.00
2022-12-29T13:54:45.788Z,12.00
2022-12-29T13:57:50.834Z,12.10
2022-12-29T14:00:20.811Z,12.00
2022-12-29T14:03:16.428Z,12.00
2022-12-29T14:06:03.129Z,12.00
2022-12-29T14:08:29.810Z,11.90
2022-12-29T14:10:56.461Z,11.90
2022-12-29T14:13:25.683Z,11.90
2022-12-29T14:15:58.959Z,11.90
2022-12-29T14:18:29.324Z,11.80
2022-12-29T14:21:00.566Z,11.80
2022-12-29T14:23:40.920Z,11.80
2022-12-29T14:26:07.584Z,11.70
2022-12-29T14:28:36.598Z,11.70
2022-12-29T14:31:15.630Z,11.60
2022-12-29T14:34:02.000Z,11.60
2022-12-29T14:36:37.324Z,11.50
2022-12-29T14:39:05.067Z,11.50
2022-12-29T14:41:36.158Z,11.50
2022-12-29T14:44:17.539Z,11.50
2022-12-29T14:46:45.242Z,11.50
2022-12-29T14:49:18.840Z,11.40
2022-12-29T14:51:46.500Z,11.40
2022-12-29T14:54:41.239Z,11.30
2022-12-29T14:57:14.041Z,11.30
2022-12-29T14:59:40.802Z,11.30
2022-12-29T15:02:19.754Z,11.30
2022-12-29T15:04:48.037Z,11.30
2022-12-29T15:07:16.471Z,11.20
2022-12-29T15:09:50.471Z,11.20
2022-12-29T15:12:42.457Z,11.10
2022-12-29T15:15:21.160Z,11.10
2022-12-29T15:17:47.997Z,11.00
2022-12-29T15:20:33.077Z,10.90
2022-12-29T15:23:09.057Z,10.90
2022-12-29T15:25:37.123Z,10.80
2022-12-29T15:28:07.130Z,10.80
2022-12-29T15:30:34.101Z,10.70
2022-12-29T15:33:00.966Z,10.70
2022-12-29T15:35:33.823Z,10.60
2022-12-29T15:38:00.925Z,10.60
2022-12-29T15:40:32.898Z,10.60
2022-12-29T15:43:22.948Z,10.60
2022-12-29T15:45:51.519Z,10.60
2022-12-29T15:48:22.222Z,10.50
2022-12-29T15:50:49.354Z,10.50
2022-12-29T15:53:47.476Z,10.40
2022-12-29T15:56:14.255Z,10.40
2022-12-29T15:58:52.404Z,10.30
2022-12-29T16:01:37.054Z,10.40
2022-12-29T16:04:10.445Z,10.40
2022-12-29T16:06:39.462Z,10.40
2022-12-29T16:09:15.602Z,10.40
2022-12-29T16:12:04.319Z,10.30
2022-12-29T16:14:47.027Z,10.40
2022-12-29T16:17:16.874Z,10.40
2022-12-29T16:19:52.307Z,10.40
2022-12-29T16:22:28.072Z,10.40
2022-12-29T16:25:04.818Z,10.40
2022-12-29T16:27:41.487Z,10.40
2022-12-29T16:30:31.181Z,10.40
2022-12-29T16:33:03.653Z,10.40
2022-12-29T16:35:45.084Z,10.40
2022-12-29T16:38:22.257Z,10.40
2022-12-29T16:40:57.212Z,10.40
2022-12-29T16:43:30.512Z,10.40
2022-12-29T16:46:00.340Z,10.40
2022-12-29T16:48:30.300Z,10.40
2022-12-29T16:51:14.117Z,10.40
2022-12-29T16:53:43.326Z,10.30
2022-12-29T16:56:17.361Z,10.30
2022-12-29T16:59:10.850Z,10.30
2022-12-29T17:01:40.865Z,10.30
2022-12-29T17:04:11.277Z,10.30
2022-12-29T17:06:38.525Z,10.30
2022-12-29T17:09:24.738Z,10.20
2022-12-29T17:12:10.116Z,10.10
2022-12-29T17:14:56.411Z,10.10
2022-12-29T17:17:46.702Z,10.00
2022-12-29T17:20:24.438Z,10.00
2022-12-29T17:22:54.825Z,10.00
2022-12-29T17:25:34.122Z,9.90
2022-12-29T17:28:12.570Z,9.90
2022-12-29T17:30:40.910Z,9.90
2022-12-29T17:33:13.543Z,9.90
2022-12-29T17:35:40.275Z,9.90
2022-12-29T17:38:23.905Z,9.90
2022-12-29T17:40:50.924Z,9.90
2022-12-29T17:43:18.018Z,9.90
2022-12-29T17:45:47.456Z,9.80
2022-12-29T17:48:16.398Z,9.80
2022-12-29T17:50:44.039Z,9.70
2022-12-29T17:53:21.201Z,9.70
2022-12-29T17:55:48.018Z,9.70
2022-12-29T17:58:29.229Z,9.70
2022-12-29T18:00:59.492Z,9.70
2022-12-29T18:03:29.192Z,9.60
2022-12-29T18:05:56.188Z,9.60
2022-12-29T18:08:22.871Z,9.60
2022-12-29T18:10:51.953Z,9.70
2022-12-29T18:13:22.912Z,9.70
2022-12-29T18:15:50.254Z,9.70
2022-12-29T18:18:25.978Z,9.70
2022-12-29T18:20:54.950Z,9.70
2022-12-29T18:23:32.357Z,9.60
2022-12-29T18:26:04.760Z,9.70
2022-12-29T18:28:31.570Z,9.70
2022-12-29T18:31:00.913Z,9.80
2022-12-29T18:33:28.243Z,9.80
2022-12-29T18:36:14.134Z,9.80
2022-12-29T18:38:40.934Z,9.90
2022-12-29T18:41:18.021Z,9.80
2022-12-29T18:43:45.074Z,9.80
2022-12-29T18:46:15.980Z,9.80
2022-12-29T18:48:45.551Z,9.80
2022-12-29T18:51:17.374Z,9.80
2022-12-29T18:53:45.364Z,9.80
2022-12-29T18:56:12.838Z,9.70
2022-12-29T18:58:39.870Z,9.70
2022-12-29T19:01:07.469Z,9.70
2022-12-29T19:03:34.252Z,9.70
2022-12-29T19:06:00.959Z,9.60
2022-12-29T19:08:27.733Z,9.60
2022-12-29T19:10:54.476Z,9.60
2022-12-29T19:13:29.373Z,9.50
2022-12-29T19:15:57.838Z,9.50
2022-12-29T19:18:44.101Z,9.40
2022-12-29T19:21:11.585Z,9.40
2022-12-29T19:23:38.331Z,9.30
2022-12-29T19:26:05.100Z,9.20
2022-12-29T19:28:31.726Z,9.20
2022-12-29T19:31:00.452Z,9.10
2022-12-29T19:33:28.212Z,9.20
2022-12-29T19:36:02.079Z,9.10
2022-12-29T19:38:29.225Z,9.10
2022-12-29T19:40:56.476Z,9.10
2022-12-29T19:43:23.129Z,9.10
2022-12-29T19:45:51.290Z,9.20
2022-12-29T19:48:19.704Z,9.30
2022-12-29T19:50:46.560Z,9.30
2022-12-29T19:53:14.529Z,9.30
2022-12-29T19:55:47.882Z,9.30
2022-12-29T19:58:14.673Z,9.40
2022-12-29T20:00:43.141Z,9.40
2022-12-29T20:03:10.599Z,9.50
2022-12-29T20:05:38.222Z,9.50
2022-12-29T20:08:05.077Z,9.50
2022-12-29T20:10:31.723Z,9.50
2022-12-29T20:12:58.389Z,9.60
2022-12-29T20:15:25.127Z,9.70
2022-12-29T20:20:38.368Z,9.80
2022-12-29T20:23:05.008Z,9.80
2022-12-29T20:25:44.752Z,9.90
2022-12-29T20:28:12.535Z,9.90
2022-12-29T20:30:39.203Z,9.90
2022-12-29T20:33:08.371Z,9.90
2022-12-29T20:35:36.283Z,9.90
2022-12-29T20:38:03.241Z,9.90
2022-12-29T20:40:29.915Z,9.90
2022-12-29T20:42:56.772Z,9.90
2022-12-29T20:45:23.511Z,9.90
2022-12-29T20:47:50.228Z,9.90
2022-12-29T20:50:16.975Z,9.90
2022-12-29T20:52:43.626Z,9.90
2022-12-29T20:55:10.266Z,9.90
2022-12-29T20:58:05.569Z,9.90
2022-12-29T21:00:23.587Z,9.90
2022-12-29T21:02:50.552Z,9.90
2022-12-29T21:05:25.687Z,9.90
2022-12-29T21:07:53.813Z,9.90
2022-12-29T21:10:21.234Z,9.90
2022-12-29T21:12:48.469Z,10.00
2022-12-29T21:15:15.631Z,10.00
2022-12-29T21:17:43.383Z,9.90
2022-12-29T21:20:19.804Z,9.90
2022-12-29T21:22:47.921Z,9.80
2022-12-29T21:25:14.831Z,9.80
2022-12-29T21:27:44.523Z,9.70
2022-12-29T21:30:12.225Z,9.60
2022-12-29T21:32:39.340Z,9.50
2022-12-29T21:35:06.990Z,9.50
2022-12-29T21:37:33.677Z,9.40
2022-12-29T21:40:00.316Z,9.40
2022-12-29T21:42:29.747Z,9.40
2022-12-29T21:45:20.128Z,9.40
2022-12-29T21:48:06.893Z,9.40
2022-12-29T21:50:33.645Z,9.30
2022-12-29T21:53:00.603Z,9.30
2022-12-29T21:55:27.340Z,9.20
2022-12-29T21:58:12.876Z,9.10
2022-12-29T22:00:58.654Z,9.00
2022-12-29T22:03:44.173Z,8.90
2022-12-29T22:06:29.953Z,8.80
2022-12-29T22:09:15.216Z,8.70
2022-12-29T22:12:00.790Z,8.60
2022-12-29T22:14:27.586Z,8.50
2022-12-29T22:16:54.396Z,8.40
2022-12-29T22:19:21.218Z,8.40
2022-12-29T22:21:47.964Z,8.40
2022-12-29T22:24:14.794Z,8.40
2022-12-29T22:26:41.543Z,8.40
2022-12-29T22:29:08.272Z,8.40
2022-12-29T22:31:35.163Z,8.40
2022-12-29T22:34:03.538Z,8.30
2022-12-29T22:36:31.337Z,8.30
2022-12-29T22:38:58.319Z,8.30
2022-12-29T22:41:25.040Z,8.30
2022-12-29T22:43:51.941Z,8.20
2022-12-29T22:46:19.301Z,8.20
2022-12-29T22:48:46.303Z,8.10
2022-12-29T22:51:13.904Z,8.10
2022-12-29T22:53:41.304Z,8.10
2022-12-29T22:56:13.177Z,8.10
2022-12-29T22:58:44.459Z,8.10
2022-12-29T23:01:16.223Z,8.10
2022-12-29T23:03:43.738Z,8.10
2022-12-29T23:06:14.882Z,8.00
2022-12-29T23:08:42.334Z,8.00
2022-12-29T23:11:11.602Z,8.00
2022-12-29T23:13:41.064Z,8.00
2022-12-29T23:16:08.142Z,8.00
2022-12-29T23:18:34.926Z,8.00
2022-12-29T23:21:01.890Z,7.90
2022-12-29T23:23:49.450Z,7.90
2022-12-29T23:26:18.100Z,7.90
2022-12-29T23:28:48.344Z,7.80
2022-12-29T23:31:15.903Z,7.70
2022-12-29T23:33:42.676Z,7.30
2022-12-29T23:36:09.937Z,6.90
2022-12-29T23:38:38.489Z,6.60
2022-12-29T23:41:05.559Z,6.40
2022-12-29T23:43:32.520Z,6.30
2022-12-29T23:46:08.008Z,6.30
2022-12-29T23:48:34.776Z,6.30
2022-12-29T23:51:01.990Z,6.30
2022-12-29T23:53:31.810Z,6.20
2022-12-29T23:55:59.067Z,6.20
2022-12-29T23:58:33.587Z,6.20
